LTBR/YEI METAR and TAF weather

Enter ICAO airport designator
Station Type Date Time Source
LTBR METAR 2021/03/05 13:50 UTC NOAA

LTBR 051350Z VRB01KT CAVOK 20/M03 Q1016 NOSIG


Station Type Date Time Source
LTBR Decoded METAR 2021/03/05 13:50 UTC NOAA

Bursa / Yenisehir, Mil-Civ, Turkey (LTBR) 40-15-19N 029-33-45E
Mar 05, 2021 - 08:50 AM EST / 2021.03.05 1350 UTC
Wind: Variable at 1 MPH (1 KT):0
Visibility: greater than 7 mile(s):0
Temperature: 68 F (20 C)
Dew Point: 26 F (-3 C)
Relative Humidity: 20%
Pressure (altimeter): 30.00 in. Hg (1016 hPa)
ob: LTBR 051350Z VRB01KT CAVOK 20/M03 Q1016 NOSIG
cycle: 14

Station Type Date Time Source
LTBR TAF 2021/03/05 12:03 UTC NOAA

TAF LTBR 051040Z 0512/0612 VRB02KT CAVOK PROB30 0602/0606 4000 BR
BECMG 0609/0612 SCT035 BKN100

Example: see airport list